sensor_id;sensor_type;location;lat;lon;timestamp;pressure;altitude;pressure_sealevel;temperature
44429;BMP180;30134;47.866;-4.222;2024-03-02T00:00:09;98820.00;;;21.00
44429;BMP180;30134;47.866;-4.222;2024-03-02T00:02:44;98813.00;;;20.90
44429;BMP180;30134;47.866;-4.222;2024-03-02T00:05:21;98841.00;;;20.90
44429;BMP180;30134;47.866;-4.222;2024-03-02T00:07:55;98864.00;;;21.00
44429;BMP180;30134;47.866;-4.222;2024-03-02T00:10:25;98883.00;;;20.90
44429;BMP180;30134;47.866;-4.222;2024-03-02T00:12:56;98886.00;;;20.90
44429;BMP180;30134;47.866;-4.222;2024-03-02T00:15:50;98872.00;;;21.00
44429;BMP180;30134;47.866;-4.222;2024-03-02T00:18:31;98857.00;;;21.00
44429;BMP180;30134;47.866;-4.222;2024-03-02T00:20:58;98832.00;;;20.90
44429;BMP180;30134;47.866;-4.222;2024-03-02T00:23:27;98823.00;;;20.90
44429;BMP180;30134;47.866;-4.222;2024-03-02T00:25:56;98813.00;;;20.90
44429;BMP180;30134;47.866;-4.222;2024-03-02T00:28:36;98804.00;;;20.90
44429;BMP180;30134;47.866;-4.222;2024-03-02T00:31:04;98818.00;;;21.00
44429;BMP180;30134;47.866;-4.222;2024-03-02T00:33:39;98826.00;;;20.90
44429;BMP180;30134;47.866;-4.222;2024-03-02T00:36:07;98822.00;;;21.00
44429;BMP180;30134;47.866;-4.222;2024-03-02T00:38:35;98814.00;;;21.00
44429;BMP180;30134;47.866;-4.222;2024-03-02T00:41:08;98812.00;;;21.00
44429;BMP180;30134;47.866;-4.222;2024-03-02T00:46:22;98819.00;;;21.00
44429;BMP180;30134;47.866;-4.222;2024-03-02T00:48:56;98808.00;;;21.00
44429;BMP180;30134;47.866;-4.222;2024-03-02T00:51:24;98806.00;;;21.00
44429;BMP180;30134;47.866;-4.222;2024-03-02T00:53:52;98793.00;;;21.00
44429;BMP180;30134;47.866;-4.222;2024-03-02T00:56:21;98787.00;;;21.00
44429;BMP180;30134;47.866;-4.222;2024-03-02T00:58:47;98783.00;;;21.00
44429;BMP180;30134;47.866;-4.222;2024-03-02T01:01:19;98795.00;;;21.10
44429;BMP180;30134;47.866;-4.222;2024-03-02T01:03:46;98793.00;;;21.00
44429;BMP180;30134;47.866;-4.222;2024-03-02T01:06:12;98794.00;;;21.10
44429;BMP180;30134;47.866;-4.222;2024-03-02T01:08:39;98796.00;;;21.10
44429;BMP180;30134;47.866;-4.222;2024-03-02T01:11:05;98800.00;;;21.10
44429;BMP180;30134;47.866;-4.222;2024-03-02T01:13:32;98800.00;;;21.20
44429;BMP180;30134;47.866;-4.222;2024-03-02T01:16:04;98788.00;;;21.10
44429;BMP180;30134;47.866;-4.222;2024-03-02T01:18:30;98793.00;;;21.10
44429;BMP180;30134;47.866;-4.222;2024-03-02T01:20:56;98785.00;;;21.10
44429;BMP180;30134;47.866;-4.222;2024-03-02T01:23:25;98786.00;;;21.10
44429;BMP180;30134;47.866;-4.222;2024-03-02T01:25:52;98786.00;;;21.10
44429;BMP180;30134;47.866;-4.222;2024-03-02T01:28:19;98809.00;;;21.10
44429;BMP180;30134;47.866;-4.222;2024-03-02T01:30:46;98802.00;;;21.20
44429;BMP180;30134;47.866;-4.222;2024-03-02T01:33:13;98800.00;;;21.20
44429;BMP180;30134;47.866;-4.222;2024-03-02T01:35:38;98786.00;;;21.20
44429;BMP180;30134;47.866;-4.222;2024-03-02T01:38:05;98780.00;;;21.10
44429;BMP180;30134;47.866;-4.222;2024-03-02T01:40:37;98779.00;;;21.20
44429;BMP180;30134;47.866;-4.222;2024-03-02T01:43:07;98776.00;;;21.10
44429;BMP180;30134;47.866;-4.222;2024-03-02T01:45:34;98780.00;;;21.10
44429;BMP180;30134;47.866;-4.222;2024-03-02T01:48:01;98781.00;;;21.20
44429;BMP180;30134;47.866;-4.222;2024-03-02T01:50:37;98773.00;;;21.10
44429;BMP180;30134;47.866;-4.222;2024-03-02T01:53:03;98770.00;;;21.10
44429;BMP180;30134;47.866;-4.222;2024-03-02T01:55:29;98777.00;;;21.20
44429;BMP180;30134;47.866;-4.222;2024-03-02T01:57:56;98776.00;;;21.10
44429;BMP180;30134;47.866;-4.222;2024-03-02T02:00:22;98759.00;;;21.10
44429;BMP180;30134;47.866;-4.222;2024-03-02T02:02:51;98765.00;;;21.10
44429;BMP180;30134;47.866;-4.222;2024-03-02T02:05:17;98768.00;;;21.10
44429;BMP180;30134;47.866;-4.222;2024-03-02T02:07:43;98766.00;;;21.10
44429;BMP180;30134;47.866;-4.222;2024-03-02T02:10:29;98765.00;;;21.20
44429;BMP180;30134;47.866;-4.222;2024-03-02T02:12:55;98763.00;;;21.20
44429;BMP180;30134;47.866;-4.222;2024-03-02T02:15:31;98765.00;;;21.20
44429;BMP180;30134;47.866;-4.222;2024-03-02T02:18:04;98763.00;;;21.20
44429;BMP180;30134;47.866;-4.222;2024-03-02T02:20:30;98770.00;;;21.20
44429;BMP180;30134;47.866;-4.222;2024-03-02T02:23:03;98763.00;;;21.10
44429;BMP180;30134;47.866;-4.222;2024-03-02T02:25:31;98769.00;;;21.20
44429;BMP180;30134;47.866;-4.222;2024-03-02T02:27:57;98764.00;;;21.10
44429;BMP180;30134;47.866;-4.222;2024-03-02T02:30:30;98775.00;;;21.20
44429;BMP180;30134;47.866;-4.222;2024-03-02T02:32:57;98765.00;;;21.20
44429;BMP180;30134;47.866;-4.222;2024-03-02T02:35:23;98764.00;;;21.20
44429;BMP180;30134;47.866;-4.222;2024-03-02T02:37:50;98766.00;;;21.20
44429;BMP180;30134;47.866;-4.222;2024-03-02T02:40:18;98753.00;;;21.20
44429;BMP180;30134;47.866;-4.222;2024-03-02T02:42:47;98756.00;;;21.20
44429;BMP180;30134;47.866;-4.222;2024-03-02T02:45:13;98753.00;;;21.20
44429;BMP180;30134;47.866;-4.222;2024-03-02T02:47:44;98748.00;;;21.20
44429;BMP180;30134;47.866;-4.222;2024-03-02T02:50:12;98752.00;;;21.20
44429;BMP180;30134;47.866;-4.222;2024-03-02T02:52:41;98749.00;;;21.20
44429;BMP180;30134;47.866;-4.222;2024-03-02T02:55:12;98744.00;;;21.20
44429;BMP180;30134;47.866;-4.222;2024-03-02T02:57:40;98748.00;;;21.30
44429;BMP180;30134;47.866;-4.222;2024-03-02T03:00:15;98758.00;;;21.20
44429;BMP180;30134;47.866;-4.222;2024-03-02T03:02:49;98750.00;;;21.30
44429;BMP180;30134;47.866;-4.222;2024-03-02T03:05:16;98729.00;;;21.30
44429;BMP180;30134;47.866;-4.222;2024-03-02T03:07:42;98716.00;;;21.30
44429;BMP180;30134;47.866;-4.222;2024-03-02T03:10:10;98734.00;;;21.30
44429;BMP180;30134;47.866;-4.222;2024-03-02T03:12:36;98724.00;;;21.30
44429;BMP180;30134;47.866;-4.222;2024-03-02T03:15:04;98718.00;;;21.30
44429;BMP180;30134;47.866;-4.222;2024-03-02T03:17:30;98712.00;;;21.30
44429;BMP180;30134;47.866;-4.222;2024-03-02T03:20:03;98715.00;;;21.30
44429;BMP180;30134;47.866;-4.222;2024-03-02T03:22:31;98710.00;;;21.30
44429;BMP180;30134;47.866;-4.222;2024-03-02T03:24:58;98709.00;;;21.30
44429;BMP180;30134;47.866;-4.222;2024-03-02T03:27:24;98703.00;;;21.30
44429;BMP180;30134;47.866;-4.222;2024-03-02T03:29:49;98719.00;;;21.30
44429;BMP180;30134;47.866;-4.222;2024-03-02T03:32:15;98720.00;;;21.30
44429;BMP180;30134;47.866;-4.222;2024-03-02T03:34:42;98719.00;;;21.30
44429;BMP180;30134;47.866;-4.222;2024-03-02T03:37:08;98707.00;;;21.30
44429;BMP180;30134;47.866;-4.222;2024-03-02T03:39:35;98701.00;;;21.30
44429;BMP180;30134;47.866;-4.222;2024-03-02T03:42:01;98695.00;;;21.30
44429;BMP180;30134;47.866;-4.222;2024-03-02T03:44:27;98692.00;;;21.30
44429;BMP180;30134;47.866;-4.222;2024-03-02T03:46:53;98694.00;;;21.40
44429;BMP180;30134;47.866;-4.222;2024-03-02T03:49:19;98697.00;;;21.40
44429;BMP180;30134;47.866;-4.222;2024-03-02T03:51:45;98699.00;;;21.40
44429;BMP180;30134;47.866;-4.222;2024-03-02T03:54:11;98702.00;;;21.30
44429;BMP180;30134;47.866;-4.222;2024-03-02T03:56:37;98700.00;;;21.40
44429;BMP180;30134;47.866;-4.222;2024-03-02T03:59:03;98697.00;;;21.40
44429;BMP180;30134;47.866;-4.222;2024-03-02T04:01:31;98699.00;;;21.40
44429;BMP180;30134;47.866;-4.222;2024-03-02T04:03:57;98698.00;;;21.40
44429;BMP180;30134;47.866;-4.222;2024-03-02T04:06:24;98698.00;;;21.40
44429;BMP180;30134;47.866;-4.222;2024-03-02T04:08:50;98698.00;;;21.40
44429;BMP180;30134;47.866;-4.222;2024-03-02T04:11:15;98703.00;;;21.40
44429;BMP180;30134;47.866;-4.222;2024-03-02T04:13:41;98708.00;;;21.40
44429;BMP180;30134;47.866;-4.222;2024-03-02T04:16:07;98706.00;;;21.40
44429;BMP180;30134;47.866;-4.222;2024-03-02T04:18:33;98704.00;;;21.40
44429;BMP180;30134;47.866;-4.222;2024-03-02T04:21:06;98704.00;;;21.40
44429;BMP180;30134;47.866;-4.222;2024-03-02T04:23:32;98703.00;;;21.40
44429;BMP180;30134;47.866;-4.222;2024-03-02T04:25:58;98705.00;;;21.40
44429;BMP180;30134;47.866;-4.222;2024-03-02T04:28:24;98709.00;;;21.40
44429;BMP180;30134;47.866;-4.222;2024-03-02T04:30:50;98708.00;;;21.40
44429;BMP180;30134;47.866;-4.222;2024-03-02T04:33:16;98717.00;;;21.40
44429;BMP180;30134;47.866;-4.222;2024-03-02T04:35:42;98710.00;;;21.40
44429;BMP180;30134;47.866;-4.222;2024-03-02T04:38:08;98711.00;;;21.40
44429;BMP180;30134;47.866;-4.222;2024-03-02T04:40:34;98725.00;;;21.40
44429;BMP180;30134;47.866;-4.222;2024-03-02T04:43:00;98740.00;;;21.50
44429;BMP180;30134;47.866;-4.222;2024-03-02T04:45:26;98748.00;;;21.40
44429;BMP180;30134;47.866;-4.222;2024-03-02T04:47:52;98741.00;;;21.40
44429;BMP180;30134;47.866;-4.222;2024-03-02T04:50:18;98741.00;;;21.40
44429;BMP180;30134;47.866;-4.222;2024-03-02T04:52:44;98734.00;;;21.40
44429;BMP180;30134;47.866;-4.222;2024-03-02T04:55:10;98743.00;;;21.40
44429;BMP180;30134;47.866;-4.222;2024-03-02T04:57:43;98745.00;;;21.40
44429;BMP180;30134;47.866;-4.222;2024-03-02T05:00:10;98741.00;;;21.40
44429;BMP180;30134;47.866;-4.222;2024-03-02T05:02:36;98740.00;;;21.50
44429;BMP180;30134;47.866;-4.222;2024-03-02T05:05:02;98743.00;;;21.40
44429;BMP180;30134;47.866;-4.222;2024-03-02T05:07:28;98742.00;;;21.50
44429;BMP180;30134;47.866;-4.222;2024-03-02T05:09:54;98740.00;;;21.50
44429;BMP180;30134;47.866;-4.222;2024-03-02T05:12:20;98736.00;;;21.50
44429;BMP180;30134;47.866;-4.222;2024-03-02T05:15:02;98742.00;;;21.50
44429;BMP180;30134;47.866;-4.222;2024-03-02T05:17:31;98747.00;;;21.40
44429;BMP180;30134;47.866;-4.222;2024-03-02T05:19:57;98740.00;;;21.40
44429;BMP180;30134;47.866;-4.222;2024-03-02T05:22:29;98743.00;;;21.50
44429;BMP180;30134;47.866;-4.222;2024-03-02T05:24:55;98744.00;;;21.50
44429;BMP180;30134;47.866;-4.222;2024-03-02T05:27:22;98751.00;;;21.50
44429;BMP180;30134;47.866;-4.222;2024-03-02T05:29:48;98752.00;;;21.50
44429;BMP180;30134;47.866;-4.222;2024-03-02T05:32:14;98749.00;;;21.50
44429;BMP180;30134;47.866;-4.222;2024-03-02T05:34:40;98751.00;;;21.50
44429;BMP180;30134;47.866;-4.222;2024-03-02T05:37:05;98740.00;;;21.40
44429;BMP180;30134;47.866;-4.222;2024-03-02T05:39:31;98734.00;;;21.50
44429;BMP180;30134;47.866;-4.222;2024-03-02T05:41:57;98736.00;;;21.50
44429;BMP180;30134;47.866;-4.222;2024-03-02T05:44:23;98737.00;;;21.50
44429;BMP180;30134;47.866;-4.222;2024-03-02T05:46:49;98743.00;;;21.50
44429;BMP180;30134;47.866;-4.222;2024-03-02T05:49:15;98747.00;;;21.50
44429;BMP180;30134;47.866;-4.222;2024-03-02T05:51:41;98753.00;;;21.50
44429;BMP180;30134;47.866;-4.222;2024-03-02T05:54:07;98751.00;;;21.50
44429;BMP180;30134;47.866;-4.222;2024-03-02T05:56:33;98756.00;;;21.50
44429;BMP180;30134;47.866;-4.222;2024-03-02T05:58:59;98760.00;;;21.50
44429;BMP180;30134;47.866;-4.222;2024-03-02T06:01:48;98761.00;;;21.50
44429;BMP180;30134;47.866;-4.222;2024-03-02T06:04:18;98765.00;;;21.50
44429;BMP180;30134;47.866;-4.222;2024-03-02T06:06:44;98766.00;;;21.50
44429;BMP180;30134;47.866;-4.222;2024-03-02T06:09:10;98764.00;;;21.50
44429;BMP180;30134;47.866;-4.222;2024-03-02T06:11:39;98766.00;;;21.50
44429;BMP180;30134;47.866;-4.222;2024-03-02T06:14:08;98761.00;;;21.50
44429;BMP180;30134;47.866;-4.222;2024-03-02T06:16:34;98760.00;;;21.50
44429;BMP180;30134;47.866;-4.222;2024-03-02T06:19:01;98749.00;;;21.50
44429;BMP180;30134;47.866;-4.222;2024-03-02T06:21:28;98755.00;;;21.50
44429;BMP180;30134;47.866;-4.222;2024-03-02T06:24:00;98747.00;;;21.50
44429;BMP180;30134;47.866;-4.222;2024-03-02T06:26:26;98748.00;;;21.50
44429;BMP180;30134;47.866;-4.222;2024-03-02T06:28:54;98749.00;;;21.50
44429;BMP180;30134;47.866;-4.222;2024-03-02T06:31:20;98750.00;;;21.50
44429;BMP180;30134;47.866;-4.222;2024-03-02T06:33:46;98750.00;;;21.50
44429;BMP180;30134;47.866;-4.222;2024-03-02T06:36:12;98751.00;;;21.50
44429;BMP180;30134;47.866;-4.222;2024-03-02T06:38:38;98749.00;;;21.50
44429;BMP180;30134;47.866;-4.222;2024-03-02T06:41:06;98751.00;;;21.50
44429;BMP180;30134;47.866;-4.222;2024-03-02T06:43:32;98751.00;;;21.50
44429;BMP180;30134;47.866;-4.222;2024-03-02T06:45:58;98757.00;;;21.60
44429;BMP180;30134;47.866;-4.222;2024-03-02T06:48:24;98744.00;;;21.60
44429;BMP180;30134;47.866;-4.222;2024-03-02T06:50:50;98744.00;;;21.60
44429;BMP180;30134;47.866;-4.222;2024-03-02T06:53:17;98743.00;;;21.50
44429;BMP180;30134;47.866;-4.222;2024-03-02T06:55:46;98748.00;;;21.60
44429;BMP180;30134;47.866;-4.222;2024-03-02T06:58:13;98744.00;;;21.60
44429;BMP180;30134;47.866;-4.222;2024-03-02T07:00:42;98752.00;;;21.60
44429;BMP180;30134;47.866;-4.222;2024-03-02T07:03:08;98752.00;;;21.60
44429;BMP180;30134;47.866;-4.222;2024-03-02T07:05:34;98760.00;;;21.60
44429;BMP180;30134;47.866;-4.222;2024-03-02T07:08:00;98759.00;;;21.60
44429;BMP180;30134;47.866;-4.222;2024-03-02T07:10:27;98767.00;;;21.60
44429;BMP180;30134;47.866;-4.222;2024-03-02T07:12:53;98763.00;;;21.60
44429;BMP180;30134;47.866;-4.222;2024-03-02T07:15:19;98760.00;;;21.60
44429;BMP180;30134;47.866;-4.222;2024-03-02T07:17:51;98762.00;;;21.60
44429;BMP180;30134;47.866;-4.222;2024-03-02T07:20:17;98762.00;;;21.60
44429;BMP180;30134;47.866;-4.222;2024-03-02T07:22:43;98763.00;;;21.60
44429;BMP180;30134;47.866;-4.222;2024-03-02T07:25:15;98764.00;;;21.70
44429;BMP180;30134;47.866;-4.222;2024-03-02T07:27:41;98768.00;;;21.60
44429;BMP180;30134;47.866;-4.222;2024-03-02T07:30:08;98773.00;;;21.60
44429;BMP180;30134;47.866;-4.222;2024-03-02T07:32:34;98781.00;;;21.60
44429;BMP180;30134;47.866;-4.222;2024-03-02T07:35:00;98784.00;;;21.60
44429;BMP180;30134;47.866;-4.222;2024-03-02T07:37:27;98777.00;;;21.60
44429;BMP180;30134;47.866;-4.222;2024-03-02T07:39:54;98785.00;;;21.70
44429;BMP180;30134;47.866;-4.222;2024-03-02T07:42:21;98798.00;;;21.60
44429;BMP180;30134;47.866;-4.222;2024-03-02T07:44:47;98803.00;;;21.60
44429;BMP180;30134;47.866;-4.222;2024-03-02T07:47:13;98801.00;;;21.60
44429;BMP180;30134;47.866;-4.222;2024-03-02T07:49:40;98812.00;;;21.60
44429;BMP180;30134;47.866;-4.222;2024-03-02T07:52:06;98813.00;;;21.60
44429;BMP180;30134;47.866;-4.222;2024-03-02T07:54:32;98815.00;;;21.60
44429;BMP180;30134;47.866;-4.222;2024-03-02T07:56:59;98818.00;;;21.70
44429;BMP180;30134;47.866;-4.222;2024-03-02T07:59:31;98828.00;;;21.70
44429;BMP180;30134;47.866;-4.222;2024-03-02T08:02:00;98827.00;;;21.70
44429;BMP180;30134;47.866;-4.222;2024-03-02T08:04:26;98826.00;;;21.70
44429;BMP180;30134;47.866;-4.222;2024-03-02T08:06:52;98836.00;;;21.70
44429;BMP180;30134;47.866;-4.222;2024-03-02T08:09:20;98832.00;;;21.70
44429;BMP180;30134;47.866;-4.222;2024-03-02T08:11:46;98848.00;;;21.60
44429;BMP180;30134;47.866;-4.222;2024-03-02T08:14:12;98841.00;;;21.60
44429;BMP180;30134;47.866;-4.222;2024-03-02T08:16:38;98853.00;;;21.60
44429;BMP180;30134;47.866;-4.222;2024-03-02T08:19:04;98848.00;;;21.50
44429;BMP180;30134;47.866;-4.222;2024-03-02T08:21:30;98861.00;;;21.50
44429;BMP180;30134;47.866;-4.222;2024-03-02T08:23:57;98862.00;;;21.60
44429;BMP180;30134;47.866;-4.222;2024-03-02T08:26:30;98870.00;;;21.60
44429;BMP180;30134;47.866;-4.222;2024-03-02T08:28:58;98872.00;;;21.60
44429;BMP180;30134;47.866;-4.222;2024-03-02T08:31:24;98881.00;;;21.60
44429;BMP180;30134;47.866;-4.222;2024-03-02T08:33:50;98881.00;;;21.60
44429;BMP180;30134;47.866;-4.222;2024-03-02T08:36:17;98884.00;;;21.60
44429;BMP180;30134;47.866;-4.222;2024-03-02T08:38:43;98890.00;;;21.60
44429;BMP180;30134;47.866;-4.222;2024-03-02T08:41:10;98898.00;;;21.70
44429;BMP180;30134;47.866;-4.222;2024-03-02T08:43:40;98899.00;;;21.60
44429;BMP180;30134;47.866;-4.222;2024-03-02T08:46:07;98897.00;;;21.60
44429;BMP180;30134;47.866;-4.222;2024-03-02T08:48:34;98900.00;;;21.60
44429;BMP180;30134;47.866;-4.222;2024-03-02T08:51:00;98907.00;;;21.60
44429;BMP180;30134;47.866;-4.222;2024-03-02T08:53:26;98912.00;;;21.60
44429;BMP180;30134;47.866;-4.222;2024-03-02T08:55:52;98909.00;;;21.60
44429;BMP180;30134;47.866;-4.222;2024-03-02T08:58:18;98912.00;;;21.60
44429;BMP180;30134;47.866;-4.222;2024-03-02T09:00:44;98915.00;;;21.60
44429;BMP180;30134;47.866;-4.222;2024-03-02T09:03:10;98919.00;;;21.60
44429;BMP180;30134;47.866;-4.222;2024-03-02T09:05:36;98922.00;;;21.60
44429;BMP180;30134;47.866;-4.222;2024-03-02T09:08:02;98925.00;;;21.60
44429;BMP180;30134;47.866;-4.222;2024-03-02T09:10:29;98936.00;;;21.60
44429;BMP180;30134;47.866;-4.222;2024-03-02T09:12:55;98935.00;;;21.60
44429;BMP180;30134;47.866;-4.222;2024-03-02T09:15:21;98937.00;;;21.60
44429;BMP180;30134;47.866;-4.222;2024-03-02T09:17:47;98939.00;;;21.70
44429;BMP180;30134;47.866;-4.222;2024-03-02T09:20:13;98945.00;;;21.70
44429;BMP180;30134;47.866;-4.222;2024-03-02T09:22:39;98941.00;;;21.60
44429;BMP180;30134;47.866;-4.222;2024-03-02T09:25:06;98943.00;;;21.60
44429;BMP180;30134;47.866;-4.222;2024-03-02T09:27:40;98941.00;;;21.70
44429;BMP180;30134;47.866;-4.222;2024-03-02T09:30:10;98948.00;;;21.60
44429;BMP180;30134;47.866;-4.222;2024-03-02T09:32:37;98949.00;;;21.60
44429;BMP180;30134;47.866;-4.222;2024-03-02T09:35:04;98956.00;;;21.70
44429;BMP180;30134;47.866;-4.222;2024-03-02T09:37:29;98949.00;;;21.70
44429;BMP180;30134;47.866;-4.222;2024-03-02T09:39:56;98964.00;;;21.70
44429;BMP180;30134;47.866;-4.222;2024-03-02T09:42:22;98961.00;;;21.70
44429;BMP180;30134;47.866;-4.222;2024-03-02T09:44:48;98961.00;;;21.70
44429;BMP180;30134;47.866;-4.222;2024-03-02T09:47:15;98954.00;;;21.70
44429;BMP180;30134;47.866;-4.222;2024-03-02T09:49:41;98951.00;;;21.70
44429;BMP180;30134;47.866;-4.222;2024-03-02T09:52:07;98962.00;;;21.70
44429;BMP180;30134;47.866;-4.222;2024-03-02T09:54:33;98959.00;;;21.70
44429;BMP180;30134;47.866;-4.222;2024-03-02T09:56:59;98964.00;;;21.70
44429;BMP180;30134;47.866;-4.222;2024-03-02T09:59:27;98962.00;;;21.60
44429;BMP180;30134;47.866;-4.222;2024-03-02T10:02:03;98963.00;;;21.70
44429;BMP180;30134;47.866;-4.222;2024-03-02T10:04:30;98959.00;;;21.80
44429;BMP180;30134;47.866;-4.222;2024-03-02T10:07:13;98961.00;;;21.80
44429;BMP180;30134;47.866;-4.222;2024-03-02T10:09:43;98966.00;;;21.70
44429;BMP180;30134;47.866;-4.222;2024-03-02T10:12:11;98968.00;;;21.70
44429;BMP180;30134;47.866;-4.222;2024-03-02T10:14:38;98965.00;;;21.80
44429;BMP180;30134;47.866;-4.222;2024-03-02T10:17:07;98976.00;;;21.70
44429;BMP180;30134;47.866;-4.222;2024-03-02T10:19:34;98977.00;;;21.70
44429;BMP180;30134;47.866;-4.222;2024-03-02T10:22:10;98978.00;;;21.80
44429;BMP180;30134;47.866;-4.222;2024-03-02T10:24:39;98986.00;;;21.80
44429;BMP180;30134;47.866;-4.222;2024-03-02T10:27:27;98980.00;;;21.80
44429;BMP180;30134;47.866;-4.222;2024-03-02T10:29:59;98995.00;;;21.70
44429;BMP180;30134;47.866;-4.222;2024-03-02T10:32:26;98993.00;;;21.80
44429;BMP180;30134;47.866;-4.222;2024-03-02T10:34:52;98997.00;;;21.80
44429;BMP180;30134;47.866;-4.222;2024-03-02T10:37:18;98999.00;;;21.80
44429;BMP180;30134;47.866;-4.222;2024-03-02T10:39:46;98999.00;;;21.80
44429;BMP180;30134;47.866;-4.222;2024-03-02T10:42:14;99007.00;;;21.80
44429;BMP180;30134;47.866;-4.222;2024-03-02T10:44:41;99012.00;;;21.80
44429;BMP180;30134;47.866;-4.222;2024-03-02T10:47:09;99010.00;;;21.90
44429;BMP180;30134;47.866;-4.222;2024-03-02T10:49:38;99016.00;;;21.80
44429;BMP180;30134;47.866;-4.222;2024-03-02T10:52:07;99015.00;;;21.80
44429;BMP180;30134;47.866;-4.222;2024-03-02T10:54:35;99011.00;;;21.80
44429;BMP180;30134;47.866;-4.222;2024-03-02T10:57:07;99007.00;;;21.80
44429;BMP180;30134;47.866;-4.222;2024-03-02T10:59:37;99006.00;;;21.70
44429;BMP180;30134;47.866;-4.222;2024-03-02T11:02:05;99015.00;;;21.80
44429;BMP180;30134;47.866;-4.222;2024-03-02T11:04:34;99001.00;;;21.80
44429;BMP180;30134;47.866;-4.222;2024-03-02T11:07:07;99010.00;;;21.90
44429;BMP180;30134;47.866;-4.222;2024-03-02T11:09:35;99015.00;;;21.80
44429;BMP180;30134;47.866;-4.222;2024-03-02T11:12:23;99018.00;;;21.80
44429;BMP180;30134;47.866;-4.222;2024-03-02T11:14:51;99017.00;;;21.80
44429;BMP180;30134;47.866;-4.222;2024-03-02T11:17:20;99027.00;;;21.90
44429;BMP180;30134;47.866;-4.222;2024-03-02T11:19:47;99025.00;;;21.80
44429;BMP180;30134;47.866;-4.222;2024-03-02T11:22:14;99024.00;;;21.80
44429;BMP180;30134;47.866;-4.222;2024-03-02T11:24:49;99026.00;;;21.90
44429;BMP180;30134;47.866;-4.222;2024-03-02T11:33:12;99036.00;;;22.00
44429;BMP180;30134;47.866;-4.222;2024-03-02T11:35:42;99052.00;;;21.80
44429;BMP180;30134;47.866;-4.222;2024-03-02T11:38:10;99053.00;;;21.90
44429;BMP180;30134;47.866;-4.222;2024-03-02T11:40:40;99054.00;;;21.80
44429;BMP180;30134;47.866;-4.222;2024-03-02T11:43:07;99064.00;;;21.90
44429;BMP180;30134;47.866;-4.222;2024-03-02T11:45:37;99052.00;;;21.90
44429;BMP180;30134;47.866;-4.222;2024-03-02T11:48:10;99050.00;;;22.00
44429;BMP180;30134;47.866;-4.222;2024-03-02T11:50:51;99041.00;;;22.00
44429;BMP180;30134;47.866;-4.222;2024-03-02T11:53:20;99038.00;;;22.00
44429;BMP180;30134;47.866;-4.222;2024-03-02T11:55:46;99034.00;;;22.10
44429;BMP180;30134;47.866;-4.222;2024-03-02T11:58:14;99042.00;;;22.20
44429;BMP180;30134;47.866;-4.222;2024-03-02T12:00:46;99025.00;;;22.10
44429;BMP180;30134;47.866;-4.222;2024-03-02T12:03:14;99030.00;;;22.20
44429;BMP180;30134;47.866;-4.222;2024-03-02T12:05:41;99028.00;;;22.10
44429;BMP180;30134;47.866;-4.222;2024-03-02T12:08:08;99020.00;;;22.10
44429;BMP180;30134;47.866;-4.222;2024-03-02T12:10:36;99024.00;;;22.10
44429;BMP180;30134;47.866;-4.222;2024-03-02T12:13:04;99024.00;;;22.10
44429;BMP180;30134;47.866;-4.222;2024-03-02T12:15:35;99025.00;;;22.10
44429;BMP180;30134;47.866;-4.222;2024-03-02T12:18:05;99015.00;;;22.10
44429;BMP180;30134;47.866;-4.222;2024-03-02T12:20:33;99020.00;;;22.20
44429;BMP180;30134;47.866;-4.222;2024-03-02T12:23:02;99026.00;;;22.20
44429;BMP180;30134;47.866;-4.222;2024-03-02T12:25:28;99033.00;;;22.10
44429;BMP180;30134;47.866;-4.222;2024-03-02T12:27:58;99051.00;;;22.00
44429;BMP180;30134;47.866;-4.222;2024-03-02T12:30:35;99051.00;;;22.00
44429;BMP180;30134;47.866;-4.222;2024-03-02T12:33:01;99061.00;;;22.00
44429;BMP180;30134;47.866;-4.222;2024-03-02T12:35:27;99058.00;;;22.10
44429;BMP180;30134;47.866;-4.222;2024-03-02T12:37:59;99058.00;;;22.00
44429;BMP180;30134;47.866;-4.222;2024-03-02T12:40:25;99048.00;;;22.00
44429;BMP180;30134;47.866;-4.222;2024-03-02T12:42:51;99044.00;;;22.00
44429;BMP180;30134;47.866;-4.222;2024-03-02T12:45:18;99039.00;;;22.00
44429;BMP180;30134;47.866;-4.222;2024-03-02T12:47:49;99051.00;;;22.00
44429;BMP180;30134;47.866;-4.222;2024-03-02T12:50:16;99047.00;;;22.00
44429;BMP180;30134;47.866;-4.222;2024-03-02T12:52:42;99040.00;;;22.00
44429;BMP180;30134;47.866;-4.222;2024-03-02T12:55:09;99039.00;;;22.00
44429;BMP180;30134;47.866;-4.222;2024-03-02T12:57:35;99035.00;;;22.00
44429;BMP180;30134;47.866;-4.222;2024-03-02T13:00:06;99036.00;;;22.00
44429;BMP180;30134;47.866;-4.222;2024-03-02T13:02:41;99033.00;;;22.00
44429;BMP180;30134;47.866;-4.222;2024-03-02T13:05:09;99033.00;;;22.00
44429;BMP180;30134;47.866;-4.222;2024-03-02T13:07:37;99032.00;;;22.00
44429;BMP180;30134;47.866;-4.222;2024-03-02T13:10:05;99028.00;;;22.10
44429;BMP180;30134;47.866;-4.222;2024-03-02T13:12:32;99032.00;;;22.10
44429;BMP180;30134;47.866;-4.222;2024-03-02T13:14:59;99024.00;;;22.10
44429;BMP180;30134;47.866;-4.222;2024-03-02T13:17:25;99035.00;;;22.00
44429;BMP180;30134;47.866;-4.222;2024-03-02T13:19:57;99029.00;;;22.00
44429;BMP180;30134;47.866;-4.222;2024-03-02T13:22:26;99033.00;;;21.90
44429;BMP180;30134;47.866;-4.222;2024-03-02T13:24:53;99027.00;;;21.90
44429;BMP180;30134;47.866;-4.222;2024-03-02T13:27:23;99028.00;;;21.80
44429;BMP180;30134;47.866;-4.222;2024-03-02T13:29:49;99039.00;;;21.80
44429;BMP180;30134;47.866;-4.222;2024-03-02T13:32:22;99036.00;;;21.80
44429;BMP180;30134;47.866;-4.222;2024-03-02T13:34:50;99041.00;;;21.80
44429;BMP180;30134;47.866;-4.222;2024-03-02T13:37:16;99027.00;;;21.80
44429;BMP180;30134;47.866;-4.222;2024-03-02T13:39:42;99055.00;;;21.80
44429;BMP180;30134;47.866;-4.222;2024-03-02T13:42:09;99044.00;;;21.80
44429;BMP180;30134;47.866;-4.222;2024-03-02T13:44:37;99056.00;;;21.70
44429;BMP180;30134;47.866;-4.222;2024-03-02T13:47:04;99054.00;;;21.70
44429;BMP180;30134;47.866;-4.222;2024-03-02T13:49:31;99058.00;;;21.70
44429;BMP180;30134;47.866;-4.222;2024-03-02T13:52:06;99052.00;;;21.70
44429;BMP180;30134;47.866;-4.222;2024-03-02T13:54:48;99052.00;;;21.70
44429;BMP180;30134;47.866;-4.222;2024-03-02T13:57:14;99053.00;;;21.70
44429;BMP180;30134;47.866;-4.222;2024-03-02T13:59:42;99049.00;;;21.70
44429;BMP180;30134;47.866;-4.222;2024-03-02T14:02:08;99050.00;;;21.80
44429;BMP180;30134;47.866;-4.222;2024-03-02T14:04:35;99041.00;;;21.80
44429;BMP180;30134;47.866;-4.222;2024-03-02T14:07:02;99051.00;;;21.80
44429;BMP180;30134;47.866;-4.222;2024-03-02T14:09:29;99058.00;;;21.80